Time;durP1;ratioP1;P1;durP2;ratioP2;P2;SDS_P1;SDS_P2;PMS_P1;PMS_P2;Temp;Humidity;BMP_temperature;BMP_pressure;BME280_temperature;BME280_humidity;BME280_pressure;Samples;Min_cycle;Max_cycle;Signal;HPM_P1;HPM_P2
2022/03/10 00:07:39;;;;;;;4.05;2.05;;;8.70;61.50;;;;;;20888153;28;20314;-76
2022/03/10 00:17:40;;;;;;;2.85;1.75;;;8.70;61.50;;;;;;20869580;28;20037;-76
2022/03/10 00:27:42;;;;;;;4.72;1.90;;;8.70;61.40;;;;;;20869993;28;20048;-76
2022/03/10 00:37:42;;;;;;;2.42;1.85;;;8.70;61.50;;;;;;20884897;28;20120;-76
2022/03/10 00:47:43;;;;;;;4.35;1.90;;;8.70;61.50;;;;;;20883885;28;20123;-76
2022/03/10 00:57:43;;;;;;;6.40;2.15;;;8.60;61.30;;;;;;20883711;28;20032;-77
2022/03/10 01:07:44;;;;;;;4.28;1.80;;;8.70;61.40;;;;;;20882514;28;20036;-76
2022/03/10 01:17:45;;;;;;;2.47;1.27;;;8.70;61.40;;;;;;20882149;28;20029;-77
2022/03/10 01:27:46;;;;;;;3.58;1.90;;;8.70;61.30;;;;;;20881311;28;20060;-76
2022/03/10 01:37:46;;;;;;;3.50;1.63;;;8.70;61.30;;;;;;20863511;28;20029;-76
2022/03/10 01:47:47;;;;;;;3.35;1.50;;;8.60;61.30;;;;;;20862568;28;20053;-78
2022/03/10 01:57:47;;;;;;;4.20;2.58;;;8.60;61.20;;;;;;20862857;28;20036;-77
2022/03/10 02:18:07;;;;;;;3.50;1.58;;;8.60;61.20;;;;;;20864283;28;20028;-75
2022/03/10 02:28:08;;;;;;;2.88;1.75;;;8.60;61.30;;;;;;20858530;28;20534;-76
2022/03/10 02:38:09;;;;;;;1.77;1.23;;;8.60;61.20;;;;;;20857856;28;20033;-76
2022/03/10 02:48:09;;;;;;;3.25;1.75;;;8.60;61.20;;;;;;20879764;28;20124;-76
2022/03/10 02:58:10;;;;;;;3.25;1.52;;;8.60;61.10;;;;;;20884744;28;20043;-75
2022/03/10 03:08:11;;;;;;;4.15;1.77;;;8.60;61.20;;;;;;20869170;28;20032;-76
2022/03/10 03:18:11;;;;;;;4.25;1.70;;;8.60;61.10;;;;;;20900701;28;20032;-76
2022/03/10 03:28:12;;;;;;;3.15;1.33;;;8.60;61.20;;;;;;20899908;28;20033;-77
2022/03/10 03:38:12;;;;;;;4.18;1.60;;;8.60;61.20;;;;;;20899755;28;20497;-76
2022/03/10 03:48:13;;;;;;;3.58;1.75;;;8.60;61.20;;;;;;20872958;28;20090;-76
2022/03/10 03:58:14;;;;;;;3.55;1.88;;;8.60;61.20;;;;;;20888346;28;20373;-76
2022/03/10 04:08:15;;;;;;;3.50;1.55;;;8.60;61.20;;;;;;20885817;28;20557;-77
2022/03/10 04:18:17;;;;;;;3.65;1.90;;;8.60;61.10;;;;;;20868020;28;20032;-76
2022/03/10 04:28:17;;;;;;;3.15;1.58;;;8.60;61.10;;;;;;20867287;28;20049;-77
2022/03/10 04:38:18;;;;;;;4.72;1.42;;;8.60;61.10;;;;;;20850918;28;20393;-76
2022/03/10 04:48:19;;;;;;;2.85;1.30;;;8.60;61.00;;;;;;20867316;28;20947;-75
2022/03/10 04:58:19;;;;;;;3.67;1.52;;;8.50;61.00;;;;;;20882798;28;20120;-76
2022/03/10 05:08:20;;;;;;;3.33;1.40;;;8.50;61.00;;;;;;20859076;28;20041;-77
2022/03/10 05:18:21;;;;;;;2.40;1.55;;;8.50;61.10;;;;;;20879735;28;20032;-76
2022/03/10 05:28:21;;;;;;;4.03;1.60;;;8.50;61.00;;;;;;20878738;28;20045;-76
2022/03/10 05:38:22;;;;;;;3.10;1.30;;;8.50;61.00;;;;;;20907535;28;20025;-81
2022/03/10 05:48:22;;;;;;;2.05;1.38;;;8.50;61.00;;;;;;20878605;28;20396;-77
2022/03/10 05:58:23;;;;;;;7.75;1.70;;;8.50;60.90;;;;;;20844828;28;20074;-77
2022/03/10 06:08:25;;;;;;;3.13;1.80;;;8.60;60.80;;;;;;20853624;28;20101;-82
2022/03/10 06:18:25;;;;;;;4.15;1.90;;;8.50;60.60;;;;;;20911033;28;20044;-78
2022/03/10 06:28:26;;;;;;;3.80;1.95;;;8.50;60.60;;;;;;20895209;28;20431;-75
2022/03/10 06:38:27;;;;;;;3.58;1.85;;;8.50;60.70;;;;;;20881429;28;20036;-77
2022/03/10 06:48:27;;;;;;;2.85;1.58;;;8.50;60.80;;;;;;20854818;28;20087;-78
2022/03/10 06:58:28;;;;;;;2.65;1.50;;;8.50;60.70;;;;;;20856808;28;20033;-77
2022/03/10 07:08:29;;;;;;;2.90;1.75;;;8.50;60.70;;;;;;20873065;28;20086;-78
2022/03/10 07:18:29;;;;;;;3.35;1.95;;;8.50;60.80;;;;;;20888852;28;20029;-78
2022/03/10 07:28:31;;;;;;;3.33;1.60;;;8.60;60.80;;;;;;20908885;28;20041;-78
2022/03/10 07:38:31;;;;;;;2.72;1.10;;;8.50;60.80;;;;;;20897349;28;20079;-76
2022/03/10 07:48:32;;;;;;;1.77;1.25;;;8.50;60.90;;;;;;20919300;28;20033;-75
2022/03/10 07:58:33;;;;;;;3.20;1.50;;;8.50;61.00;;;;;;20903230;28;20041;-79
2022/03/10 08:08:34;;;;;;;4.78;1.30;;;8.60;61.10;;;;;;20907812;28;20040;-75
2022/03/10 08:18:34;;;;;;;3.15;1.17;;;8.60;61.10;;;;;;20843996;28;20110;-76
2022/03/10 08:28:36;;;;;;;3.33;1.10;;;8.60;61.10;;;;;;20881123;28;20120;-74
2022/03/10 08:38:36;;;;;;;6.35;5.55;;;8.60;61.10;;;;;;20865405;28;20279;-75
2022/03/10 08:48:39;;;;;;;1.20;0.98;;;8.70;61.20;;;;;;20877829;28;20033;-76
2022/03/10 08:58:39;;;;;;;2.35;1.00;;;8.70;61.10;;;;;;20852753;28;20025;-77
2022/03/10 09:08:42;;;;;;;4.60;1.20;;;8.70;61.10;;;;;;20844028;28;20029;-80
2022/03/10 09:18:45;;;;;;;2.17;0.80;;;8.80;61.20;;;;;;20880326;28;20712;-78
2022/03/10 09:28:45;;;;;;;1.65;0.90;;;8.80;61.30;;;;;;20822276;28;20444;-82
2022/03/10 09:38:46;;;;;;;2.58;1.15;;;8.70;61.90;;;;;;20864308;28;20068;-82
2022/03/10 09:48:46;;;;;;;1.88;0.90;;;8.80;61.30;;;;;;20880579;28;20075;-82
2022/03/10 09:58:47;;;;;;;1.75;1.05;;;8.80;61.40;;;;;;20824938;28;20535;-80
2022/03/10 10:08:57;;;;;;;1.83;0.73;;;8.70;61.50;;;;;;20890561;28;20033;-80
2022/03/10 10:18:58;;;;;;;2.38;1.27;;;8.70;61.70;;;;;;20860836;28;20283;-78
2022/03/10 10:28:59;;;;;;;1.90;1.00;;;8.80;61.60;;;;;;20883435;28;20037;-77
2022/03/10 10:39:12;;;;;;;2.83;1.20;;;8.80;61.60;;;;;;20855427;28;20037;-78
2022/03/10 10:49:17;;;;;;;2.40;1.33;;;8.80;61.80;;;;;;20860949;28;20529;-80
2022/03/10 10:59:32;;;;;;;3.08;1.35;;;8.80;61.80;;;;;;20851334;28;20732;-79
2022/03/10 11:09:32;;;;;;;1.95;0.80;;;8.80;61.80;;;;;;20867551;28;20055;-82
2022/03/10 11:19:38;;;;;;;2.85;1.30;;;8.80;61.90;;;;;;20848808;28;20029;-81
2022/03/10 11:29:39;;;;;;;2.00;0.75;;;8.80;61.80;;;;;;20851920;28;20365;-80
2022/03/10 11:39:53;;;;;;;1.42;0.88;;;8.80;61.80;;;;;;20849735;28;20040;-78
2022/03/10 11:49:54;;;;;;;2.78;1.52;;;8.90;61.90;;;;;;20884662;28;20037;-77
2022/03/10 11:59:54;;;;;;;2.20;1.17;;;8.90;61.80;;;;;;20885076;28;20116;-78
2022/03/10 12:10:06;;;;;;;2.03;1.00;;;8.90;61.80;;;;;;20886834;28;20559;-75
2022/03/10 12:20:36;;;;;;;2.40;0.70;;;8.90;61.80;;;;;;20897019;28;20745;-76
2022/03/10 12:30:41;;;;;;;0.77;0.50;;;8.90;61.70;;;;;;20900780;28;20497;-76
2022/03/10 12:40:42;;;;;;;2.60;0.85;;;9.00;61.80;;;;;;20913871;28;20071;-76
2022/03/10 12:50:46;;;;;;;1.38;0.82;;;9.00;61.80;;;;;;20857590;28;20141;-76
2022/03/10 13:00:46;;;;;;;0.68;0.65;;;8.90;61.70;;;;;;20881099;28;20077;-75
2022/03/10 13:10:58;;;;;;;1.63;0.70;;;9.00;61.80;;;;;;20874840;28;20493;-75
2022/03/10 13:20:58;;;;;;;1.52;0.60;;;9.00;61.90;;;;;;20860288;28;20126;-75
2022/03/10 13:30:59;;;;;;;2.13;0.50;;;9.00;61.90;;;;;;20892372;28;20040;-75
2022/03/10 13:41:02;;;;;;;1.70;0.90;;;9.00;61.90;;;;;;20910009;28;20367;-74
2022/03/10 13:51:04;;;;;;;0.45;0.30;;;9.00;61.90;;;;;;20888730;28;20036;-76
2022/03/10 14:01:07;;;;;;;0.70;0.60;;;9.00;61.90;;;;;;20859898;28;20025;-72
2022/03/10 14:11:08;;;;;;;1.63;0.80;;;9.00;61.90;;;;;;20894172;28;20114;-74
2022/03/10 14:21:09;;;;;;;0.52;0.52;;;9.00;61.90;;;;;;20872672;28;20091;-71
2022/03/10 14:31:17;;;;;;;2.38;0.85;;;9.00;61.90;;;;;;20890860;28;20125;-73
2022/03/10 14:41:18;;;;;;;1.58;0.80;;;9.10;62.00;;;;;;20858772;28;20473;-77
2022/03/10 14:51:19;;;;;;;0.50;0.40;;;9.00;62.00;;;;;;20872876;28;20037;-73
2022/03/10 15:01:19;;;;;;;2.25;0.90;;;9.10;62.10;;;;;;20840086;28;20401;-76
2022/03/10 15:11:21;;;;;;;1.83;0.50;;;9.10;62.20;;;;;;20856393;28;20037;-73
2022/03/10 15:21:22;;;;;;;2.42;0.88;;;9.10;62.20;;;;;;20872402;28;20040;-72
2022/03/10 15:31:23;;;;;;;1.55;0.85;;;9.20;62.30;;;;;;20871295;28;20033;-75
2022/03/10 15:41:23;;;;;;;4.25;1.08;;;9.20;62.20;;;;;;20888554;28;20492;-76
2022/03/10 15:51:27;;;;;;;1.75;0.82;;;9.30;62.20;;;;;;20876841;28;20118;-76
2022/03/10 16:01:27;;;;;;;3.47;0.82;;;9.40;62.10;;;;;;20867711;28;20192;-75
2022/03/10 16:11:28;;;;;;;1.50;0.60;;;9.50;62.20;;;;;;20866367;28;20033;-74
2022/03/10 16:21:28;;;;;;;2.47;0.70;;;9.50;62.20;;;;;;20866435;28;20029;-75
2022/03/10 16:31:30;;;;;;;1.70;0.70;;;9.40;62.20;;;;;;20867187;28;20594;-73
2022/03/10 16:41:30;;;;;;;2.08;0.60;;;9.40;62.40;;;;;;20898702;28;20051;-79
2022/03/10 16:51:31;;;;;;;2.78;0.98;;;9.40;62.50;;;;;;20865765;28;20067;-76
2022/03/10 17:01:32;;;;;;;2.88;1.20;;;9.40;62.60;;;;;;20880150;28;20043;-76
2022/03/10 17:11:33;;;;;;;2.22;0.65;;;9.40;62.80;;;;;;20860147;28;20049;-75
2022/03/10 17:21:34;;;;;;;1.33;0.50;;;9.30;62.90;;;;;;20860779;28;20532;-72
2022/03/10 17:31:34;;;;;;;2.28;0.82;;;9.30;63.10;;;;;;20875355;28;20126;-76
2022/03/10 17:41:35;;;;;;;1.58;1.00;;;9.30;63.30;;;;;;20858038;28;20048;-77
2022/03/10 17:51:38;;;;;;;4.32;1.23;;;9.20;63.40;;;;;;20864581;28;20040;-77
2022/03/10 18:01:39;;;;;;;4.07;0.95;;;9.30;63.50;;;;;;20855359;28;20036;-76
2022/03/10 18:11:39;;;;;;;2.60;1.20;;;9.20;63.60;;;;;;20853740;28;20056;-75
2022/03/10 18:21:40;;;;;;;2.42;1.27;;;9.20;63.70;;;;;;20855225;28;20279;-75
2022/03/10 18:31:41;;;;;;;2.28;1.33;;;9.10;63.80;;;;;;20869444;28;20048;-76
2022/03/10 18:41:41;;;;;;;2.10;1.05;;;9.10;63.90;;;;;;20854474;28;20112;-76
2022/03/10 18:51:43;;;;;;;2.10;1.25;;;9.10;64.10;;;;;;20837007;28;20044;-76
2022/03/10 19:01:44;;;;;;;2.30;1.23;;;9.00;64.10;;;;;;20886167;28;20373;-78
2022/03/10 19:11:44;;;;;;;4.55;1.58;;;9.00;64.10;;;;;;20854749;28;20049;-78
2022/03/10 19:21:45;;;;;;;3.90;1.50;;;9.10;64.30;;;;;;20886682;28;20118;-77
2022/03/10 19:31:45;;;;;;;4.03;1.77;;;9.00;64.30;;;;;;20868365;28;20132;-77
2022/03/10 19:41:46;;;;;;;2.22;1.17;;;9.00;64.30;;;;;;20870222;28;20044;-77
2022/03/10 19:51:48;;;;;;;4.35;1.38;;;9.10;64.40;;;;;;20885140;28;20049;-74
2022/03/10 20:01:49;;;;;;;3.13;1.52;;;9.00;64.40;;;;;;20849015;28;20099;-75
2022/03/10 20:11:49;;;;;;;2.47;1.58;;;9.00;64.50;;;;;;20898338;28;20473;-74
2022/03/10 20:21:50;;;;;;;4.50;1.73;;;8.90;64.50;;;;;;20873006;28;20047;-75
2022/03/10 20:31:51;;;;;;;2.75;1.40;;;9.00;64.60;;;;;;20879652;28;20033;-75
2022/03/10 20:41:51;;;;;;;3.55;1.65;;;9.00;64.70;;;;;;20896831;28;20029;-75
2022/03/10 20:51:52;;;;;;;2.25;1.63;;;8.90;64.70;;;;;;20844499;28;20569;-76
2022/03/10 21:01:52;;;;;;;4.40;2.13;;;8.90;64.70;;;;;;20865059;28;20489;-75
2022/03/10 21:11:53;;;;;;;3.50;1.30;;;8.90;64.80;;;;;;20880521;28;20040;-75
2022/03/10 21:21:53;;;;;;;2.67;1.60;;;8.90;64.80;;;;;;20925857;28;20024;-76
2022/03/10 21:31:54;;;;;;;2.83;1.85;;;8.90;64.80;;;;;;20960966;28;20127;-75
2022/03/10 21:41:57;;;;;;;2.13;1.20;;;8.90;64.80;;;;;;20939409;28;20103;-76
2022/03/10 21:51:58;;;;;;;2.10;1.20;;;8.90;64.90;;;;;;20942679;28;20481;-76
2022/03/10 22:02:00;;;;;;;2.22;1.30;;;8.90;64.80;;;;;;20943634;28;20101;-76
2022/03/10 22:12:00;;;;;;;2.45;1.58;;;8.90;64.90;;;;;;20975036;28;20178;-74
2022/03/10 22:22:01;;;;;;;3.35;1.50;;;8.80;64.80;;;;;;20941619;28;20511;-75
2022/03/10 22:32:02;;;;;;;3.70;1.30;;;8.90;64.90;;;;;;20957215;28;20035;-74
2022/03/10 22:42:03;;;;;;;1.95;1.20;;;8.90;64.90;;;;;;20940706;28;20309;-75
2022/03/10 23:02:25;;;;;;;3.17;1.80;;;8.80;64.90;;;;;;20981136;28;20064;-76
2022/03/10 23:12:26;;;;;;;2.63;1.05;;;8.90;65.00;;;;;;20970044;28;20491;-76
2022/03/10 23:22:26;;;;;;;1.58;1.15;;;8.80;64.90;;;;;;20902642;28;20108;-76
2022/03/10 23:32:27;;;;;;;2.00;1.20;;;8.80;64.90;;;;;;20871905;28;20090;-75
2022/03/10 23:42:27;;;;;;;2.47;1.38;;;8.80;64.90;;;;;;20887685;28;20719;-75
2022/03/10 23:52:28;;;;;;;2.22;1.10;;;8.80;64.90;;;;;;20854670;28;20033;-75
